Time;durP1;ratioP1;P1;durP2;ratioP2;P2;SDS_P1;SDS_P2;PMS_P1;PMS_P2;Temp;Humidity;BMP_temperature;BMP_pressure;BME280_temperature;BME280_humidity;BME280_pressure;Samples;Min_cycle;Max_cycle;Signal;HPM_P1;HPM_P2
2022/10/15 00:01:27;;;;;;;12.47;11.03;;;11.30;99.90;;;;;;5061490;28;20514;-78
2022/10/15 00:03:55;;;;;;;13.40;11.20;;;11.40;99.90;;;;;;5056866;28;20562;-77
2022/10/15 00:06:22;;;;;;;13.27;11.90;;;11.30;99.90;;;;;;5056212;28;20594;-76
2022/10/15 00:08:49;;;;;;;12.13;10.60;;;11.20;99.90;;;;;;5057019;28;21004;-75
2022/10/15 00:11:18;;;;;;;11.17;10.17;;;11.20;99.90;;;;;;5063078;28;20463;-76
2022/10/15 00:13:46;;;;;;;10.63;9.63;;;11.20;99.90;;;;;;5052247;28;20871;-76
2022/10/15 00:16:15;;;;;;;12.50;10.90;;;11.20;99.90;;;;;;5061315;28;20455;-75
2022/10/15 00:18:43;;;;;;;13.53;10.40;;;11.10;99.90;;;;;;5057524;28;20504;-76
2022/10/15 00:21:13;;;;;;;15.50;10.53;;;11.10;99.90;;;;;;5061268;28;20573;-76
2022/10/15 00:23:41;;;;;;;12.40;11.20;;;11.00;99.90;;;;;;5056670;28;20456;-76
2022/10/15 00:26:10;;;;;;;10.30;8.90;;;11.00;99.90;;;;;;5056986;28;20489;-76
2022/10/15 00:28:37;;;;;;;10.90;9.90;;;11.00;99.90;;;;;;5058634;28;20493;-76
2022/10/15 00:31:07;;;;;;;10.47;9.33;;;10.90;99.90;;;;;;5061349;28;20619;-76
2022/10/15 00:33:35;;;;;;;11.63;10.30;;;10.90;99.90;;;;;;5063339;28;20519;-76
2022/10/15 00:36:05;;;;;;;11.97;9.00;;;10.90;99.90;;;;;;5059574;28;20457;-76
2022/10/15 00:38:32;;;;;;;12.03;10.90;;;11.00;99.90;;;;;;5066281;28;20974;-76
2022/10/15 00:40:59;;;;;;;11.80;10.60;;;10.90;99.90;;;;;;5060293;28;20544;-76
2022/10/15 00:43:40;;;;;;;11.60;10.40;;;10.90;99.90;;;;;;5062680;28;20491;-76
2022/10/15 00:46:17;;;;;;;11.77;10.60;;;10.90;99.90;;;;;;5059113;28;20586;-76
2022/10/15 00:48:48;;;;;;;18.20;10.97;;;10.90;99.90;;;;;;5062695;28;21006;-76
2022/10/15 00:51:16;;;;;;;10.53;9.53;;;10.90;99.90;;;;;;5064914;28;20833;-76
2022/10/15 00:53:44;;;;;;;11.30;10.20;;;10.80;99.90;;;;;;5062107;28;21027;-76
2022/10/15 00:56:12;;;;;;;11.27;10.07;;;10.90;99.90;;;;;;5052738;28;20499;-75
2022/10/15 00:58:39;;;;;;;11.37;9.70;;;11.00;99.90;;;;;;5061549;28;20464;-76
2022/10/15 01:01:06;;;;;;;11.37;10.20;;;11.00;99.90;;;;;;5061404;28;20461;-75
2022/10/15 01:03:35;;;;;;;12.20;10.80;;;11.00;99.90;;;;;;5061677;28;20514;-76
2022/10/15 01:06:03;;;;;;;10.63;9.63;;;11.00;99.90;;;;;;5061833;28;20578;-76
2022/10/15 01:08:30;;;;;;;11.27;9.27;;;10.90;99.90;;;;;;5061644;28;20550;-76
2022/10/15 01:11:10;;;;;;;10.13;9.13;;;10.90;99.90;;;;;;5061656;28;20468;-76
2022/10/15 01:13:40;;;;;;;11.40;10.30;;;11.00;99.90;;;;;;5063021;28;20496;-75
2022/10/15 01:16:12;;;;;;;16.63;9.47;;;10.90;99.90;;;;;;5059376;28;20461;-76
2022/10/15 01:18:47;;;;;;;12.63;9.47;;;10.90;99.90;;;;;;5063695;28;20545;-75
2022/10/15 01:21:19;;;;;;;10.63;9.63;;;10.90;99.90;;;;;;5064490;28;20460;-76
2022/10/15 01:24:28;;;;;;;8.53;7.83;;;11.00;99.90;;;;;;5060671;28;20951;-76
2022/10/15 01:27:23;;;;;;;14.30;10.17;;;11.00;99.90;;;;;;5059257;28;20897;-76
2022/10/15 01:30:24;;;;;;;9.40;8.60;;;11.00;99.90;;;;;;5059269;28;20851;-76
2022/10/15 01:33:08;;;;;;;9.43;8.50;;;11.00;99.90;;;;;;5057961;28;20564;-76
2022/10/15 01:35:46;;;;;;;13.20;8.93;;;11.00;99.90;;;;;;5058717;28;20460;-76
2022/10/15 01:38:23;;;;;;;10.50;9.40;;;11.00;99.90;;;;;;5064089;28;20460;-76
2022/10/15 01:40:54;;;;;;;9.00;8.20;;;11.00;99.90;;;;;;5058073;28;20453;-76
2022/10/15 01:43:28;;;;;;;9.37;8.53;;;10.90;99.90;;;;;;5057029;28;20488;-76
2022/10/15 01:46:01;;;;;;;10.20;9.30;;;10.80;99.90;;;;;;5057800;28;20507;-76
2022/10/15 01:48:32;;;;;;;10.40;9.40;;;10.90;99.90;;;;;;5058596;28;20984;-76
2022/10/15 01:51:04;;;;;;;8.57;7.50;;;10.90;99.90;;;;;;5062307;28;21024;-77
2022/10/15 01:53:33;;;;;;;8.13;7.33;;;10.90;99.90;;;;;;5062648;28;20550;-76
2022/10/15 01:56:03;;;;;;;10.10;9.10;;;10.90;99.90;;;;;;5061304;28;20963;-76
2022/10/15 01:58:32;;;;;;;9.90;9.03;;;10.90;99.90;;;;;;5061873;28;20464;-75
2022/10/15 02:00:59;;;;;;;8.93;8.03;;;11.00;99.90;;;;;;5060401;28;20458;-76
2022/10/15 02:03:26;;;;;;;9.27;8.37;;;10.90;99.90;;;;;;5060888;28;21043;-76
2022/10/15 02:06:01;;;;;;;8.03;7.43;;;11.00;99.90;;;;;;5056267;28;20506;-76
2022/10/15 02:08:38;;;;;;;8.93;7.40;;;11.00;99.90;;;;;;5063951;28;20481;-75
2022/10/15 02:11:07;;;;;;;8.73;7.83;;;11.00;99.90;;;;;;5057555;28;20466;-76
2022/10/15 02:13:44;;;;;;;7.50;6.83;;;11.10;99.90;;;;;;5063707;28;20470;-76
2022/10/15 02:16:19;;;;;;;9.17;7.70;;;11.00;99.90;;;;;;5067711;28;20645;-75
2022/10/15 02:18:52;;;;;;;12.53;9.30;;;10.90;99.90;;;;;;5053537;28;20945;-76
2022/10/15 02:21:24;;;;;;;9.80;8.80;;;11.00;99.90;;;;;;5058819;28;20539;-76
2022/10/15 02:23:56;;;;;;;10.30;9.20;;;11.00;99.90;;;;;;5059342;28;20549;-75
2022/10/15 02:26:25;;;;;;;10.70;9.70;;;11.00;99.90;;;;;;5061431;28;21036;-75
2022/10/15 02:28:56;;;;;;;10.10;9.10;;;10.80;99.90;;;;;;5059309;28;20604;-76
2022/10/15 02:31:24;;;;;;;10.70;8.67;;;10.90;99.90;;;;;;5054896;28;20545;-75
2022/10/15 02:33:54;;;;;;;9.07;8.17;;;10.90;99.90;;;;;;5059750;28;20491;-75
2022/10/15 02:36:23;;;;;;;8.97;8.00;;;11.00;99.90;;;;;;5050565;28;21214;-75
2022/10/15 02:38:52;;;;;;;13.80;8.40;;;11.00;99.90;;;;;;5057402;28;20971;-75
2022/10/15 02:41:19;;;;;;;9.30;8.50;;;11.00;99.90;;;;;;5059474;28;20479;-75
2022/10/15 02:43:47;;;;;;;10.30;8.63;;;11.00;99.90;;;;;;5063624;28;20496;-75
2022/10/15 02:46:16;;;;;;;10.33;7.57;;;10.80;99.90;;;;;;5052151;28;20476;-75
2022/10/15 02:48:42;;;;;;;9.20;8.40;;;10.90;99.90;;;;;;5061641;28;20481;-76
2022/10/15 02:51:09;;;;;;;11.37;8.90;;;10.90;99.90;;;;;;5062710;28;20947;-75
2022/10/15 02:53:38;;;;;;;10.40;9.20;;;10.90;99.90;;;;;;5062667;28;20473;-75
2022/10/15 02:56:05;;;;;;;10.20;9.13;;;11.00;99.90;;;;;;5057779;28;20464;-75
2022/10/15 02:58:32;;;;;;;10.13;9.03;;;11.10;99.90;;;;;;5062741;28;20557;-75
2022/10/15 03:00:59;;;;;;;9.90;9.00;;;11.10;99.90;;;;;;5059472;28;20488;-75
2022/10/15 03:03:26;;;;;;;9.20;8.30;;;11.10;99.90;;;;;;5057005;28;20999;-75
2022/10/15 03:05:53;;;;;;;10.13;9.13;;;11.10;99.90;;;;;;5061067;28;20461;-75
2022/10/15 03:08:20;;;;;;;11.10;10.00;;;11.10;99.90;;;;;;5059789;28;20569;-75
2022/10/15 03:10:48;;;;;;;8.73;7.93;;;11.10;99.90;;;;;;5062165;28;20475;-76
2022/10/15 03:13:15;;;;;;;8.67;7.77;;;11.00;99.90;;;;;;5061770;28;20556;-75
2022/10/15 03:15:43;;;;;;;9.73;8.93;;;11.10;99.90;;;;;;5058813;28;20488;-76
2022/10/15 03:18:10;;;;;;;10.53;7.20;;;11.10;99.90;;;;;;5061515;28;20904;-75
2022/10/15 03:20:37;;;;;;;13.10;9.00;;;11.10;99.90;;;;;;5071722;28;20455;-75
2022/10/15 03:23:04;;;;;;;9.93;8.90;;;11.10;99.90;;;;;;5061593;28;20517;-75
2022/10/15 03:25:31;;;;;;;8.83;7.90;;;11.10;99.90;;;;;;5061059;28;20495;-75
2022/10/15 03:27:59;;;;;;;10.40;9.20;;;11.10;99.90;;;;;;5062273;28;20557;-75
2022/10/15 03:30:26;;;;;;;9.03;7.37;;;11.10;99.90;;;;;;5057068;28;21071;-75
2022/10/15 03:32:53;;;;;;;9.10;7.50;;;11.00;99.90;;;;;;5059176;28;21034;-76
2022/10/15 03:35:20;;;;;;;9.03;8.13;;;11.00;99.90;;;;;;5052984;28;20487;-75
2022/10/15 03:37:47;;;;;;;8.23;7.43;;;11.00;99.90;;;;;;5057806;28;20464;-75
2022/10/15 03:40:14;;;;;;;10.23;7.53;;;11.00;99.90;;;;;;5060368;28;20466;-75
2022/10/15 03:42:41;;;;;;;9.73;8.30;;;10.90;99.90;;;;;;5060878;28;20461;-75
2022/10/15 03:45:10;;;;;;;9.30;8.40;;;10.90;99.90;;;;;;5056217;28;20489;-76
2022/10/15 03:47:37;;;;;;;9.90;8.77;;;11.00;99.90;;;;;;5060961;28;20497;-76
2022/10/15 03:50:05;;;;;;;9.30;8.40;;;11.00;99.90;;;;;;5051142;28;20490;-76
2022/10/15 03:52:32;;;;;;;10.83;9.70;;;11.10;99.90;;;;;;5060358;28;20462;-76
2022/10/15 03:54:58;;;;;;;10.10;9.07;;;10.90;99.90;;;;;;5059316;28;20912;-75
2022/10/15 03:57:26;;;;;;;8.90;7.90;;;10.90;99.90;;;;;;5059102;28;20457;-76
2022/10/15 03:59:53;;;;;;;9.93;9.00;;;10.90;99.90;;;;;;5059509;28;20488;-75
2022/10/15 04:02:21;;;;;;;10.97;9.87;;;10.90;99.90;;;;;;5061155;28;20465;-75
2022/10/15 04:04:48;;;;;;;10.77;9.00;;;10.90;99.90;;;;;;5060278;28;20461;-75
2022/10/15 04:07:15;;;;;;;11.63;10.23;;;10.90;99.90;;;;;;5062327;28;20490;-75
2022/10/15 04:09:42;;;;;;;10.00;9.10;;;10.80;99.90;;;;;;5064865;28;20492;-75
2022/10/15 04:12:08;;;;;;;9.30;7.50;;;10.80;99.90;;;;;;5062750;28;20541;-75
2022/10/15 04:14:35;;;;;;;8.93;8.10;;;10.80;99.90;;;;;;5066456;28;21066;-75
2022/10/15 04:17:02;;;;;;;10.00;8.30;;;10.80;99.90;;;;;;5062709;28;20513;-75
2022/10/15 04:19:31;;;;;;;10.17;9.07;;;10.80;99.90;;;;;;5064393;28;20491;-74
2022/10/15 04:21:58;;;;;;;10.13;9.10;;;10.80;99.90;;;;;;5062757;28;20569;-75
2022/10/15 04:24:25;;;;;;;10.20;9.17;;;10.90;99.90;;;;;;5065146;28;20500;-75
2022/10/15 04:26:52;;;;;;;10.83;9.50;;;10.80;99.90;;;;;;5057786;28;21167;-75
2022/10/15 04:29:19;;;;;;;10.13;9.20;;;10.80;99.90;;;;;;5064939;28;20488;-75
2022/10/15 04:31:46;;;;;;;7.80;7.17;;;10.90;99.90;;;;;;5052675;28;20492;-75
2022/10/15 04:34:13;;;;;;;11.87;10.20;;;10.90;99.90;;;;;;5062998;28;20476;-75
2022/10/15 04:36:42;;;;;;;11.03;8.63;;;11.00;99.90;;;;;;5059338;28;20577;-75
2022/10/15 04:39:09;;;;;;;11.87;10.53;;;11.00;99.90;;;;;;5062263;28;20467;-77
2022/10/15 04:41:36;;;;;;;11.03;9.70;;;11.00;99.90;;;;;;5062539;28;20461;-74
2022/10/15 04:44:03;;;;;;;12.00;10.80;;;11.00;99.90;;;;;;5065276;28;21152;-75
2022/10/15 04:46:30;;;;;;;10.77;9.77;;;11.00;99.90;;;;;;5059251;28;20464;-75
2022/10/15 04:48:57;;;;;;;10.70;9.60;;;10.80;99.90;;;;;;5060574;28;20918;-74
2022/10/15 04:51:25;;;;;;;11.80;9.53;;;10.80;99.90;;;;;;5063487;28;20606;-75
2022/10/15 04:53:54;;;;;;;11.83;10.83;;;10.80;99.90;;;;;;5059183;28;20521;-75
2022/10/15 04:56:22;;;;;;;10.27;9.10;;;10.80;99.90;;;;;;5063074;28;20808;-75
2022/10/15 04:58:50;;;;;;;10.67;9.73;;;10.90;99.90;;;;;;5061835;28;20896;-75
2022/10/15 05:01:20;;;;;;;15.10;9.37;;;10.90;99.90;;;;;;5061582;28;21241;-75
2022/10/15 05:03:49;;;;;;;10.37;9.47;;;10.90;99.90;;;;;;5052687;28;20467;-75
2022/10/15 05:06:17;;;;;;;10.90;9.80;;;10.80;99.90;;;;;;5058895;28;20520;-75
2022/10/15 05:08:45;;;;;;;11.20;10.20;;;10.80;99.90;;;;;;5065071;28;20541;-75
2022/10/15 05:11:15;;;;;;;10.57;9.57;;;11.00;99.90;;;;;;5067710;28;20471;-75
2022/10/15 05:13:42;;;;;;;13.63;9.30;;;11.00;99.90;;;;;;5061025;28;20487;-75
2022/10/15 05:16:11;;;;;;;11.17;10.07;;;11.10;99.90;;;;;;5062057;28;20503;-75
2022/10/15 05:18:38;;;;;;;10.77;9.67;;;11.10;99.90;;;;;;5061661;28;20485;-75
2022/10/15 05:21:06;;;;;;;10.80;9.27;;;11.20;99.90;;;;;;5058339;28;20802;-75
2022/10/15 05:23:33;;;;;;;11.10;9.80;;;11.20;99.90;;;;;;5063470;28;20539;-75
2022/10/15 05:26:00;;;;;;;12.97;11.03;;;11.20;99.90;;;;;;5054106;28;20929;-76
2022/10/15 05:28:29;;;;;;;12.90;10.17;;;11.20;99.90;;;;;;5059405;28;20992;-76
2022/10/15 05:30:56;;;;;;;13.37;11.97;;;11.20;99.90;;;;;;5059307;28;20541;-76
2022/10/15 05:33:23;;;;;;;14.73;11.50;;;11.10;99.90;;;;;;5064359;28;20564;-76
2022/10/15 05:35:50;;;;;;;14.93;10.80;;;11.10;99.90;;;;;;5058264;28;20459;-76
2022/10/15 05:38:16;;;;;;;16.30;11.77;;;11.20;99.90;;;;;;5059614;28;20513;-76
2022/10/15 05:40:48;;;;;;;19.03;15.80;;;11.10;99.90;;;;;;5063272;28;20464;-76
2022/10/15 05:43:15;;;;;;;18.10;13.03;;;11.10;99.90;;;;;;5057887;28;21090;-76
2022/10/15 05:45:43;;;;;;;15.37;12.50;;;11.20;99.90;;;;;;5060042;28;20491;-77
2022/10/15 05:48:10;;;;;;;22.70;12.27;;;11.30;99.90;;;;;;5059050;28;20619;-77
2022/10/15 05:50:37;;;;;;;82.20;20.53;;;11.20;99.90;;;;;;5061764;28;20545;-77
2022/10/15 05:53:04;;;;;;;65.67;19.80;;;11.20;99.90;;;;;;5057428;28;20559;-78
2022/10/15 05:55:31;;;;;;;21.40;11.90;;;11.10;99.90;;;;;;5063554;28;20935;-78
2022/10/15 05:58:02;;;;;;;16.07;10.67;;;11.10;99.90;;;;;;5062990;28;20510;-78
2022/10/15 06:00:29;;;;;;;11.40;9.97;;;11.20;99.90;;;;;;5064645;28;20563;-77
2022/10/15 06:02:57;;;;;;;10.20;8.20;;;11.20;99.90;;;;;;5060017;28;20489;-77
2022/10/15 06:05:24;;;;;;;12.47;10.30;;;11.20;99.90;;;;;;5057468;28;20532;-77
2022/10/15 06:07:51;;;;;;;10.43;9.33;;;11.20;99.90;;;;;;5054989;28;20575;-77
2022/10/15 06:10:19;;;;;;;9.50;8.63;;;11.20;99.90;;;;;;5059603;28;20487;-77
2022/10/15 06:12:50;;;;;;;11.27;9.10;;;11.30;99.90;;;;;;5060026;28;20469;-77
2022/10/15 06:15:17;;;;;;;10.20;8.37;;;11.40;99.90;;;;;;5060679;28;20548;-77
2022/10/15 06:17:44;;;;;;;10.57;9.50;;;11.50;99.90;;;;;;5051533;28;20493;-77
2022/10/15 06:20:13;;;;;;;13.43;9.60;;;11.50;99.90;;;;;;5058254;28;20974;-77
2022/10/15 06:22:40;;;;;;;10.77;9.53;;;11.50;99.90;;;;;;5054715;28;20461;-77
2022/10/15 06:25:08;;;;;;;16.47;9.53;;;11.40;99.90;;;;;;5054048;28;20464;-77
2022/10/15 06:27:35;;;;;;;16.37;10.67;;;11.50;99.90;;;;;;5062912;28;20506;-77
2022/10/15 06:30:03;;;;;;;10.60;9.50;;;11.50;99.90;;;;;;5058699;28;20476;-77
2022/10/15 06:32:30;;;;;;;10.13;9.07;;;11.50;99.90;;;;;;5050696;28;20496;-77
2022/10/15 06:34:57;;;;;;;14.40;10.20;;;11.50;99.90;;;;;;5055556;28;20525;-77
2022/10/15 06:37:25;;;;;;;13.03;9.97;;;11.60;99.90;;;;;;5060139;28;20469;-77
2022/10/15 06:39:52;;;;;;;11.27;9.57;;;11.70;99.90;;;;;;5061376;28;20496;-77
2022/10/15 06:42:19;;;;;;;13.67;12.30;;;11.60;99.90;;;;;;5061727;28;20457;-77
2022/10/15 06:44:46;;;;;;;16.60;13.93;;;11.60;99.90;;;;;;5061138;28;20460;-78
2022/10/15 06:47:13;;;;;;;21.93;17.70;;;11.70;99.90;;;;;;5058676;28;20526;-77
2022/10/15 06:49:40;;;;;;;25.77;18.30;;;11.70;99.90;;;;;;5060980;28;20515;-77
2022/10/15 06:52:07;;;;;;;15.43;13.07;;;11.60;99.90;;;;;;5059812;28;21004;-77
2022/10/15 06:54:35;;;;;;;12.80;11.20;;;11.70;99.90;;;;;;5061128;28;20518;-77
2022/10/15 06:57:02;;;;;;;15.50;12.37;;;11.70;99.90;;;;;;5061219;28;20462;-77
2022/10/15 06:59:29;;;;;;;9.70;8.90;;;11.70;99.90;;;;;;5059476;28;20463;-77
2022/10/15 07:01:56;;;;;;;18.33;10.67;;;11.80;99.90;;;;;;5060945;28;20542;-77
2022/10/15 07:04:23;;;;;;;13.30;11.60;;;11.90;99.90;;;;;;5057987;28;20555;-79
2022/10/15 07:06:50;;;;;;;13.77;12.30;;;12.00;99.90;;;;;;5063535;28;20455;-78
2022/10/15 07:09:18;;;;;;;11.13;10.20;;;11.90;99.90;;;;;;5057611;28;20521;-78
2022/10/15 07:11:46;;;;;;;14.50;10.67;;;11.80;99.90;;;;;;5059254;28;20469;-78
2022/10/15 07:14:13;;;;;;;11.63;10.23;;;11.80;99.90;;;;;;5050108;28;20457;-78
2022/10/15 07:16:40;;;;;;;11.47;10.47;;;11.90;99.90;;;;;;5061650;28;20483;-78
2022/10/15 07:19:07;;;;;;;11.10;10.10;;;12.00;99.90;;;;;;5060143;28;20826;-77
2022/10/15 07:21:34;;;;;;;11.60;10.50;;;12.10;99.90;;;;;;5058269;28;20470;-77
2022/10/15 07:24:01;;;;;;;12.63;10.87;;;12.10;99.90;;;;;;5038566;28;21033;-77
2022/10/15 07:26:29;;;;;;;10.57;9.77;;;12.20;99.90;;;;;;5039414;28;20501;-77
2022/10/15 07:28:58;;;;;;;9.70;8.90;;;12.10;99.90;;;;;;5040308;28;20602;-77
2022/10/15 07:31:25;;;;;;;10.93;9.90;;;12.20;99.90;;;;;;5057971;28;20953;-77
2022/10/15 07:33:52;;;;;;;10.40;9.40;;;12.10;99.90;;;;;;5060883;28;20548;-77
2022/10/15 07:36:20;;;;;;;9.47;8.53;;;12.10;99.90;;;;;;5050444;28;20524;-77
2022/10/15 07:38:47;;;;;;;12.77;10.73;;;12.30;99.90;;;;;;5057611;28;20463;-77
2022/10/15 07:41:14;;;;;;;9.10;8.20;;;12.20;99.90;;;;;;5052130;28;21283;-77
2022/10/15 07:43:41;;;;;;;8.90;8.00;;;12.10;99.90;;;;;;5051077;28;20602;-80
2022/10/15 07:46:10;;;;;;;11.53;8.97;;;12.10;99.90;;;;;;5057780;28;20577;-77
2022/10/15 07:48:37;;;;;;;9.73;8.27;;;12.10;99.90;;;;;;5060301;28;20622;-77
2022/10/15 07:51:06;;;;;;;7.37;6.70;;;12.20;99.90;;;;;;5062463;28;21112;-77
2022/10/15 07:53:33;;;;;;;7.23;6.53;;;12.20;99.90;;;;;;5057231;28;20499;-77
2022/10/15 07:56:01;;;;;;;8.90;7.63;;;12.20;99.90;;;;;;5053785;28;20461;-77
2022/10/15 07:58:29;;;;;;;8.67;7.90;;;12.30;99.90;;;;;;5057813;28;20995;-77
2022/10/15 08:00:59;;;;;;;10.10;9.30;;;12.40;99.90;;;;;;5063860;28;21003;-77
2022/10/15 08:03:27;;;;;;;9.43;7.40;;;12.50;99.90;;;;;;5064618;28;20878;-77
2022/10/15 08:05:55;;;;;;;9.27;8.47;;;12.50;99.90;;;;;;5065762;28;20478;-77
2022/10/15 08:08:22;;;;;;;8.83;8.10;;;12.60;99.90;;;;;;5054815;28;21256;-77
2022/10/15 08:10:49;;;;;;;7.87;7.17;;;12.60;99.90;;;;;;5065163;28;20532;-77
2022/10/15 08:13:16;;;;;;;8.03;6.80;;;12.60;99.90;;;;;;5057675;28;20876;-77
2022/10/15 08:15:43;;;;;;;8.07;7.40;;;12.60;99.90;;;;;;5063339;28;21037;-77
2022/10/15 08:18:10;;;;;;;12.50;8.47;;;12.50;99.90;;;;;;5064717;28;20546;-77
2022/10/15 08:20:39;;;;;;;6.60;5.87;;;12.60;99.90;;;;;;5059013;28;21013;-77
2022/10/15 08:23:13;;;;;;;6.57;5.97;;;12.50;99.90;;;;;;5055673;28;20470;-77
2022/10/15 08:25:40;;;;;;;7.37;6.23;;;12.50;99.90;;;;;;5055574;28;20901;-78
2022/10/15 08:28:08;;;;;;;10.80;9.67;;;12.50;99.90;;;;;;5060680;28;20581;-77
2022/10/15 08:30:35;;;;;;;7.63;7.03;;;12.50;99.90;;;;;;5067670;28;20470;-76
2022/10/15 08:33:02;;;;;;;6.67;6.10;;;12.50;99.90;;;;;;5054290;28;20529;-77
2022/10/15 08:35:34;;;;;;;6.07;5.50;;;12.60;99.90;;;;;;5065554;28;20453;-77
2022/10/15 08:38:02;;;;;;;6.80;6.17;;;12.50;99.90;;;;;;5065792;28;20563;-77
2022/10/15 08:40:29;;;;;;;7.23;6.47;;;12.60;99.90;;;;;;5060322;28;20466;-77
2022/10/15 08:42:57;;;;;;;6.50;5.90;;;12.50;99.90;;;;;;5059874;28;20541;-77
2022/10/15 08:45:30;;;;;;;5.40;4.97;;;12.60;99.90;;;;;;5060576;28;20557;-77
2022/10/15 08:48:02;;;;;;;5.33;5.00;;;12.80;99.90;;;;;;5050861;28;20528;-77
2022/10/15 08:50:38;;;;;;;5.30;4.90;;;12.90;99.90;;;;;;5057040;28;21028;-77
2022/10/15 08:53:11;;;;;;;7.30;6.17;;;13.00;99.90;;;;;;5054791;28;20487;-77
2022/10/15 08:55:42;;;;;;;5.33;4.93;;;13.10;99.90;;;;;;5059978;28;20547;-76
2022/10/15 08:58:16;;;;;;;5.97;5.13;;;13.20;99.90;;;;;;5049958;28;20575;-77
2022/10/15 09:00:50;;;;;;;6.17;5.57;;;13.10;99.90;;;;;;5061639;28;20569;-77
2022/10/15 09:03:29;;;;;;;6.73;6.10;;;13.10;99.90;;;;;;5054006;28;20493;-77
2022/10/15 09:06:07;;;;;;;6.10;5.50;;;13.30;99.90;;;;;;5058363;28;20602;-77
2022/10/15 09:08:44;;;;;;;8.17;6.03;;;13.20;99.90;;;;;;5058879;28;20491;-77
2022/10/15 09:11:18;;;;;;;7.10;6.20;;;13.20;99.90;;;;;;5055137;28;20496;-77
2022/10/15 09:13:46;;;;;;;6.07;5.47;;;13.40;99.90;;;;;;5054450;28;20486;-77
2022/10/15 09:16:16;;;;;;;6.23;5.03;;;13.50;99.90;;;;;;5049800;28;20559;-78
2022/10/15 09:18:46;;;;;;;6.30;5.80;;;13.40;99.90;;;;;;5057923;28;21176;-78
2022/10/15 09:21:14;;;;;;;5.33;5.00;;;13.30;99.90;;;;;;5052311;28;20579;-77
2022/10/15 09:23:44;;;;;;;4.90;3.57;;;13.30;99.90;;;;;;5046756;28;20467;-77
2022/10/15 09:26:27;;;;;;;4.20;3.90;;;13.40;99.90;;;;;;5053056;28;20468;-77
2022/10/15 09:29:06;;;;;;;4.27;3.87;;;13.30;99.90;;;;;;5057648;28;20595;-82
2022/10/15 09:31:43;;;;;;;4.20;3.90;;;13.30;99.90;;;;;;5057684;28;20480;-77
2022/10/15 09:34:18;;;;;;;4.30;3.90;;;13.50;99.90;;;;;;5055843;28;20474;-77
2022/10/15 09:36:51;;;;;;;3.17;2.97;;;13.30;99.90;;;;;;5063405;28;20501;-77
2022/10/15 09:39:47;;;;;;;4.07;3.67;;;13.30;99.90;;;;;;5059307;28;20586;-77
2022/10/15 09:42:27;;;;;;;3.10;2.90;;;13.40;99.90;;;;;;5051569;28;20564;-77
2022/10/15 09:44:57;;;;;;;3.43;3.23;;;13.40;99.90;;;;;;5057013;28;20470;-77
2022/10/15 09:47:28;;;;;;;3.40;3.10;;;13.40;99.90;;;;;;5058585;28;20481;-77
2022/10/15 09:49:55;;;;;;;3.43;2.80;;;13.40;99.90;;;;;;5048469;28;20565;-77
2022/10/15 09:52:30;;;;;;;6.40;5.93;;;13.30;99.90;;;;;;5055706;28;20960;-77
2022/10/15 09:55:10;;;;;;;3.40;3.10;;;13.50;99.90;;;;;;5065730;28;20861;-77
2022/10/15 09:57:38;;;;;;;3.30;3.00;;;13.50;99.90;;;;;;5056991;28;20927;-76
2022/10/15 10:00:09;;;;;;;4.17;3.40;;;13.40;99.90;;;;;;5051658;28;20894;-75
2022/10/15 10:02:36;;;;;;;3.67;3.37;;;13.50;99.90;;;;;;5050760;28;20460;-75
2022/10/15 10:05:20;;;;;;;4.87;3.53;;;13.60;99.90;;;;;;5055499;28;21177;-75
2022/10/15 10:07:47;;;;;;;4.53;3.27;;;13.50;99.90;;;;;;5063568;28;20974;-75
2022/10/15 10:10:25;;;;;;;6.03;5.63;;;13.50;99.90;;;;;;5051863;28;20544;-76
2022/10/15 10:12:54;;;;;;;18.90;17.33;;;13.60;99.90;;;;;;5050645;28;20958;-75
2022/10/15 10:15:33;;;;;;;32.57;29.30;;;13.90;99.90;;;;;;5046169;28;20495;-75
2022/10/15 10:18:01;;;;;;;4.00;3.70;;;13.90;99.90;;;;;;5045837;28;20722;-76
2022/10/15 10:20:29;;;;;;;3.47;3.27;;;14.00;99.90;;;;;;5050855;28;20467;-76
2022/10/15 10:22:57;;;;;;;8.03;7.43;;;14.00;99.90;;;;;;5048994;28;20921;-77
2022/10/15 10:25:41;;;;;;;6.47;5.97;;;14.00;99.90;;;;;;5050553;28;20469;-76
2022/10/15 10:28:17;;;;;;;23.17;20.80;;;14.00;99.90;;;;;;5050473;28;20476;-77
2022/10/15 10:31:02;;;;;;;12.10;10.77;;;14.20;99.90;;;;;;5048673;28;20571;-76
2022/10/15 10:33:33;;;;;;;5.27;4.57;;;14.20;99.90;;;;;;5054998;28;20456;-76
2022/10/15 10:36:01;;;;;;;8.33;7.53;;;14.20;99.90;;;;;;5049398;28;20460;-76
2022/10/15 10:38:32;;;;;;;14.13;12.70;;;14.20;99.90;;;;;;5047236;28;20448;-76
2022/10/15 10:41:06;;;;;;;10.07;9.00;;;14.20;99.90;;;;;;5060668;28;20536;-76
2022/10/15 10:43:34;;;;;;;13.33;12.23;;;14.40;99.90;;;;;;5057261;28;20518;-76
2022/10/15 10:46:04;;;;;;;16.00;14.80;;;14.40;99.90;;;;;;5052797;28;20462;-76
2022/10/15 10:48:39;;;;;;;28.97;25.87;;;14.40;99.90;;;;;;5057713;28;20463;-76
2022/10/15 10:51:10;;;;;;;28.60;25.03;;;14.60;99.90;;;;;;5057516;28;20949;-76
2022/10/15 10:53:56;;;;;;;13.37;12.47;;;14.60;99.90;;;;;;5061761;28;20520;-76
2022/10/15 10:56:30;;;;;;;2.23;1.87;;;14.60;99.90;;;;;;5054877;28;20952;-76
2022/10/15 10:59:00;;;;;;;1.07;0.90;;;14.70;99.90;;;;;;5060402;28;20465;-76
2022/10/15 11:01:27;;;;;;;0.80;0.70;;;14.80;99.90;;;;;;5052071;28;20499;-75
2022/10/15 11:03:54;;;;;;;0.90;0.60;;;15.00;99.90;;;;;;5060149;28;20460;-76
2022/10/15 11:06:36;;;;;;;1.37;0.47;;;14.90;99.90;;;;;;5051695;28;20476;-75
2022/10/15 11:09:16;;;;;;;0.50;0.50;;;14.90;99.90;;;;;;5052031;28;20550;-76
2022/10/15 11:11:53;;;;;;;7.20;3.60;;;15.00;99.90;;;;;;5052589;28;20462;-76
2022/10/15 11:14:28;;;;;;;3.40;2.00;;;15.10;99.90;;;;;;5053074;28;20512;-76
2022/10/15 11:17:03;;;;;;;3.77;1.50;;;15.20;99.90;;;;;;5044717;28;20492;-76
2022/10/15 11:19:36;;;;;;;5.80;3.40;;;15.30;99.90;;;;;;5043769;28;20557;-75
2022/10/15 11:22:22;;;;;;;1.40;0.97;;;15.40;99.90;;;;;;5042269;28;20468;-76
2022/10/15 11:24:58;;;;;;;0.80;0.60;;;15.60;99.90;;;;;;5053361;28;20473;-76
2022/10/15 11:27:51;;;;;;;0.70;0.60;;;15.80;99.90;;;;;;5056358;28;20962;-76
2022/10/15 11:30:31;;;;;;;0.60;0.60;;;15.80;99.90;;;;;;5051004;28;20554;-76
2022/10/15 11:33:16;;;;;;;1.27;0.60;;;16.00;99.90;;;;;;5060220;28;20461;-76
2022/10/15 11:35:50;;;;;;;1.33;0.40;;;16.00;99.90;;;;;;5062974;28;20531;-76
2022/10/15 11:38:26;;;;;;;3.70;0.80;;;16.10;99.90;;;;;;5049375;28;20556;-76
2022/10/15 11:41:14;;;;;;;2.00;0.60;;;16.20;99.90;;;;;;5056962;28;20490;-76
2022/10/15 11:43:55;;;;;;;0.57;0.50;;;16.30;99.90;;;;;;5054980;28;20507;-76
2022/10/15 11:46:29;;;;;;;0.60;0.40;;;16.40;99.90;;;;;;5049969;28;20466;-76
2022/10/15 11:49:14;;;;;;;1.60;0.60;;;16.30;99.90;;;;;;5051312;28;20442;-76
2022/10/15 11:51:57;;;;;;;0.50;0.40;;;16.20;99.90;;;;;;5061328;28;21041;-76
2022/10/15 11:54:31;;;;;;;0.77;0.50;;;16.20;99.90;;;;;;5054405;28;20475;-76
2022/10/15 11:57:00;;;;;;;0.40;0.30;;;16.20;99.90;;;;;;5059946;28;20930;-76
2022/10/15 11:59:36;;;;;;;1.20;0.40;;;16.20;99.90;;;;;;5061501;28;20452;-76
2022/10/15 12:02:11;;;;;;;2.10;0.40;;;16.20;99.90;;;;;;5056016;28;20490;-76
2022/10/15 12:04:42;;;;;;;1.23;0.30;;;16.20;99.90;;;;;;5057894;28;20562;-76
2022/10/15 12:07:16;;;;;;;0.40;0.37;;;16.20;99.90;;;;;;5051354;28;21123;-76
2022/10/15 12:09:48;;;;;;;0.40;0.40;;;16.10;99.90;;;;;;5050687;28;21176;-76
2022/10/15 12:12:26;;;;;;;0.70;0.60;;;16.00;99.90;;;;;;5054362;28;20525;-76
2022/10/15 12:15:15;;;;;;;0.50;0.40;;;15.90;99.90;;;;;;5059071;28;20470;-76
2022/10/15 12:17:48;;;;;;;0.40;0.30;;;15.90;99.90;;;;;;5062813;28;21121;-76
2022/10/15 12:20:18;;;;;;;1.53;0.37;;;15.90;99.90;;;;;;5065278;28;20466;-76
2022/10/15 12:23:03;;;;;;;1.00;0.50;;;16.10;99.90;;;;;;5060262;28;20629;-76
2022/10/15 12:25:45;;;;;;;1.43;0.40;;;16.10;99.90;;;;;;5056261;28;20862;-76
2022/10/15 12:28:21;;;;;;;0.50;0.30;;;16.10;99.90;;;;;;5059639;28;20490;-75
2022/10/15 12:31:01;;;;;;;1.70;0.40;;;16.10;99.90;;;;;;5054694;28;20579;-76
2022/10/15 12:33:36;;;;;;;2.10;0.40;;;16.10;99.90;;;;;;5051806;28;20470;-76
2022/10/15 12:36:08;;;;;;;1.23;0.60;;;16.10;99.90;;;;;;5054895;28;20452;-76
2022/10/15 12:38:38;;;;;;;1.03;0.40;;;16.30;99.90;;;;;;5056509;28;20460;-76
2022/10/15 12:41:08;;;;;;;0.50;0.40;;;16.40;99.90;;;;;;5051658;28;20459;-76
2022/10/15 12:43:39;;;;;;;0.60;0.37;;;16.60;99.90;;;;;;5056066;28;20516;-76
2022/10/15 12:46:10;;;;;;;0.40;0.30;;;16.80;99.90;;;;;;5052048;28;20552;-75
2022/10/15 12:48:40;;;;;;;0.93;0.40;;;16.90;99.90;;;;;;5049376;28;20822;-76
2022/10/15 12:51:40;;;;;;;0.70;0.33;;;17.10;99.90;;;;;;5050714;28;20931;-76
2022/10/15 12:54:33;;;;;;;0.63;0.37;;;17.10;99.90;;;;;;5052937;28;20971;-76
2022/10/15 12:56:59;;;;;;;2.60;0.40;;;17.20;99.90;;;;;;5061293;28;20487;-76
2022/10/15 12:59:52;;;;;;;0.50;0.40;;;17.10;99.90;;;;;;5060481;28;21663;-76